sensor_id;sensor_type;location;lat;lon;timestamp;P1;durP1;ratioP1;P2;durP2;ratioP2
4460;SDS011;2243;48.812;9.232;2023-05-10T00:02:17;2.07;;;1.90;;
4460;SDS011;2243;48.812;9.232;2023-05-10T00:04:48;1.33;;;1.23;;
4460;SDS011;2243;48.812;9.232;2023-05-10T00:07:19;0.80;;;0.80;;
4460;SDS011;2243;48.812;9.232;2023-05-10T00:09:50;2.90;;;1.20;;
4460;SDS011;2243;48.812;9.232;2023-05-10T00:12:21;0.93;;;0.93;;
4460;SDS011;2243;48.812;9.232;2023-05-10T00:14:52;1.13;;;0.83;;
4460;SDS011;2243;48.812;9.232;2023-05-10T00:17:23;0.70;;;0.70;;
4460;SDS011;2243;48.812;9.232;2023-05-10T00:19:54;0.80;;;0.80;;
4460;SDS011;2243;48.812;9.232;2023-05-10T00:22:25;0.90;;;0.90;;
4460;SDS011;2243;48.812;9.232;2023-05-10T00:24:56;0.70;;;0.70;;
4460;SDS011;2243;48.812;9.232;2023-05-10T00:27:28;1.93;;;0.70;;
4460;SDS011;2243;48.812;9.232;2023-05-10T00:29:58;0.80;;;0.63;;
4460;SDS011;2243;48.812;9.232;2023-05-10T00:32:29;0.50;;;0.50;;
4460;SDS011;2243;48.812;9.232;2023-05-10T00:35:01;0.70;;;0.70;;
4460;SDS011;2243;48.812;9.232;2023-05-10T00:37:32;3.90;;;0.70;;
4460;SDS011;2243;48.812;9.232;2023-05-10T00:40:03;0.63;;;0.60;;
4460;SDS011;2243;48.812;9.232;2023-05-10T00:42:35;1.53;;;0.43;;
4460;SDS011;2243;48.812;9.232;2023-05-10T00:45:06;0.60;;;0.50;;
4460;SDS011;2243;48.812;9.232;2023-05-10T00:47:37;0.60;;;0.60;;
4460;SDS011;2243;48.812;9.232;2023-05-10T00:50:09;0.50;;;0.50;;
4460;SDS011;2243;48.812;9.232;2023-05-10T00:52:40;0.57;;;0.50;;
4460;SDS011;2243;48.812;9.232;2023-05-10T00:55:12;0.70;;;0.70;;
4460;SDS011;2243;48.812;9.232;2023-05-10T00:57:43;1.17;;;0.60;;
4460;SDS011;2243;48.812;9.232;2023-05-10T01:00:14;1.33;;;0.60;;
4460;SDS011;2243;48.812;9.232;2023-05-10T01:02:48;0.60;;;0.60;;
4460;SDS011;2243;48.812;9.232;2023-05-10T01:05:20;0.50;;;0.50;;
4460;SDS011;2243;48.812;9.232;2023-05-10T01:07:51;1.37;;;0.70;;
4460;SDS011;2243;48.812;9.232;2023-05-10T01:10:22;0.50;;;0.50;;
4460;SDS011;2243;48.812;9.232;2023-05-10T01:12:53;0.50;;;0.50;;
4460;SDS011;2243;48.812;9.232;2023-05-10T01:15:25;0.60;;;0.60;;
4460;SDS011;2243;48.812;9.232;2023-05-10T01:17:57;0.90;;;0.60;;
4460;SDS011;2243;48.812;9.232;2023-05-10T01:20:30;0.60;;;0.60;;
4460;SDS011;2243;48.812;9.232;2023-05-10T01:29:36;0.70;;;0.60;;
4460;SDS011;2243;48.812;9.232;2023-05-10T01:32:08;0.70;;;0.70;;
4460;SDS011;2243;48.812;9.232;2023-05-10T01:37:42;0.70;;;0.60;;
4460;SDS011;2243;48.812;9.232;2023-05-10T01:43:11;1.43;;;0.70;;
4460;SDS011;2243;48.812;9.232;2023-05-10T01:48:41;0.70;;;0.70;;
4460;SDS011;2243;48.812;9.232;2023-05-10T01:51:22;1.20;;;0.90;;
4460;SDS011;2243;48.812;9.232;2023-05-10T01:53:58;0.77;;;0.67;;
4460;SDS011;2243;48.812;9.232;2023-05-10T01:56:32;0.70;;;0.70;;
4460;SDS011;2243;48.812;9.232;2023-05-10T01:59:05;0.50;;;0.50;;
4460;SDS011;2243;48.812;9.232;2023-05-10T02:01:44;0.70;;;0.70;;
4460;SDS011;2243;48.812;9.232;2023-05-10T02:04:16;1.87;;;0.90;;
4460;SDS011;2243;48.812;9.232;2023-05-10T02:06:49;1.63;;;0.67;;
4460;SDS011;2243;48.812;9.232;2023-05-10T02:09:23;2.03;;;0.90;;
4460;SDS011;2243;48.812;9.232;2023-05-10T02:11:58;1.30;;;0.93;;
4460;SDS011;2243;48.812;9.232;2023-05-10T02:14:34;0.90;;;0.70;;
4460;SDS011;2243;48.812;9.232;2023-05-10T02:17:07;0.73;;;0.73;;
4460;SDS011;2243;48.812;9.232;2023-05-10T02:19:40;0.77;;;0.77;;
4460;SDS011;2243;48.812;9.232;2023-05-10T02:22:12;0.60;;;0.60;;
4460;SDS011;2243;48.812;9.232;2023-05-10T02:24:43;0.70;;;0.70;;
4460;SDS011;2243;48.812;9.232;2023-05-10T02:27:16;0.80;;;0.80;;
4460;SDS011;2243;48.812;9.232;2023-05-10T02:29:48;0.60;;;0.60;;
4460;SDS011;2243;48.812;9.232;2023-05-10T02:32:21;0.80;;;0.70;;
4460;SDS011;2243;48.812;9.232;2023-05-10T02:34:55;3.00;;;0.70;;
4460;SDS011;2243;48.812;9.232;2023-05-10T02:37:27;0.70;;;0.70;;
4460;SDS011;2243;48.812;9.232;2023-05-10T02:39:59;0.70;;;0.70;;
4460;SDS011;2243;48.812;9.232;2023-05-10T02:42:35;1.33;;;0.80;;
4460;SDS011;2243;48.812;9.232;2023-05-10T02:45:10;0.70;;;0.70;;
4460;SDS011;2243;48.812;9.232;2023-05-10T02:47:44;0.70;;;0.70;;
4460;SDS011;2243;48.812;9.232;2023-05-10T02:50:15;0.50;;;0.50;;
4460;SDS011;2243;48.812;9.232;2023-05-10T02:52:46;0.70;;;0.70;;
4460;SDS011;2243;48.812;9.232;2023-05-10T02:55:25;0.87;;;0.80;;
4460;SDS011;2243;48.812;9.232;2023-05-10T02:58:02;0.70;;;0.70;;
4460;SDS011;2243;48.812;9.232;2023-05-10T03:00:33;2.10;;;1.10;;
4460;SDS011;2243;48.812;9.232;2023-05-10T03:03:06;0.97;;;0.87;;
4460;SDS011;2243;48.812;9.232;2023-05-10T03:05:37;0.60;;;0.60;;
4460;SDS011;2243;48.812;9.232;2023-05-10T03:08:08;0.70;;;0.70;;
4460;SDS011;2243;48.812;9.232;2023-05-10T03:17:03;0.83;;;0.80;;
4460;SDS011;2243;48.812;9.232;2023-05-10T03:19:48;1.20;;;0.70;;
4460;SDS011;2243;48.812;9.232;2023-05-10T03:22:36;0.90;;;0.70;;
4460;SDS011;2243;48.812;9.232;2023-05-10T03:25:11;0.90;;;0.90;;
4460;SDS011;2243;48.812;9.232;2023-05-10T03:27:44;0.90;;;0.80;;
4460;SDS011;2243;48.812;9.232;2023-05-10T03:30:16;0.90;;;0.90;;
4460;SDS011;2243;48.812;9.232;2023-05-10T03:32:48;0.73;;;0.73;;
4460;SDS011;2243;48.812;9.232;2023-05-10T03:35:19;1.00;;;1.00;;
4460;SDS011;2243;48.812;9.232;2023-05-10T03:37:50;0.87;;;0.87;;
4460;SDS011;2243;48.812;9.232;2023-05-10T03:40:21;1.17;;;0.70;;
4460;SDS011;2243;48.812;9.232;2023-05-10T03:42:53;2.10;;;0.90;;
4460;SDS011;2243;48.812;9.232;2023-05-10T03:45:24;0.90;;;0.90;;
4460;SDS011;2243;48.812;9.232;2023-05-10T03:47:55;1.83;;;0.90;;
4460;SDS011;2243;48.812;9.232;2023-05-10T03:50:28;1.20;;;1.13;;
4460;SDS011;2243;48.812;9.232;2023-05-10T03:52:59;1.10;;;1.10;;
4460;SDS011;2243;48.812;9.232;2023-05-10T03:55:30;0.93;;;0.93;;
4460;SDS011;2243;48.812;9.232;2023-05-10T03:58:04;1.20;;;1.20;;
4460;SDS011;2243;48.812;9.232;2023-05-10T04:00:35;2.30;;;1.37;;
4460;SDS011;2243;48.812;9.232;2023-05-10T04:03:07;1.00;;;1.00;;
4460;SDS011;2243;48.812;9.232;2023-05-10T04:05:38;1.90;;;1.80;;
4460;SDS011;2243;48.812;9.232;2023-05-10T04:08:09;2.20;;;1.60;;
4460;SDS011;2243;48.812;9.232;2023-05-10T04:10:40;1.57;;;1.47;;
4460;SDS011;2243;48.812;9.232;2023-05-10T04:13:11;1.40;;;1.30;;
4460;SDS011;2243;48.812;9.232;2023-05-10T04:15:42;1.20;;;1.20;;
4460;SDS011;2243;48.812;9.232;2023-05-10T04:18:14;1.30;;;1.20;;
4460;SDS011;2243;48.812;9.232;2023-05-10T04:20:45;1.10;;;1.00;;
4460;SDS011;2243;48.812;9.232;2023-05-10T04:23:16;0.80;;;0.80;;
4460;SDS011;2243;48.812;9.232;2023-05-10T04:25:47;1.20;;;1.10;;
4460;SDS011;2243;48.812;9.232;2023-05-10T04:28:18;1.43;;;1.23;;
4460;SDS011;2243;48.812;9.232;2023-05-10T04:30:49;0.90;;;0.90;;
4460;SDS011;2243;48.812;9.232;2023-05-10T04:33:20;1.63;;;1.53;;
4460;SDS011;2243;48.812;9.232;2023-05-10T04:35:51;1.27;;;1.17;;
4460;SDS011;2243;48.812;9.232;2023-05-10T04:38:22;1.00;;;1.00;;
4460;SDS011;2243;48.812;9.232;2023-05-10T04:40:53;1.00;;;1.00;;
4460;SDS011;2243;48.812;9.232;2023-05-10T04:43:24;1.80;;;1.40;;
4460;SDS011;2243;48.812;9.232;2023-05-10T04:45:56;1.10;;;1.10;;
4460;SDS011;2243;48.812;9.232;2023-05-10T04:48:27;1.30;;;1.20;;
4460;SDS011;2243;48.812;9.232;2023-05-10T04:50:58;1.40;;;1.30;;
4460;SDS011;2243;48.812;9.232;2023-05-10T04:53:30;2.23;;;1.20;;
4460;SDS011;2243;48.812;9.232;2023-05-10T04:56:00;1.47;;;1.37;;
4460;SDS011;2243;48.812;9.232;2023-05-10T04:58:31;0.90;;;0.90;;
4460;SDS011;2243;48.812;9.232;2023-05-10T05:01:06;1.73;;;1.20;;
4460;SDS011;2243;48.812;9.232;2023-05-10T05:03:39;1.93;;;1.20;;
4460;SDS011;2243;48.812;9.232;2023-05-10T05:06:10;1.37;;;1.00;;
4460;SDS011;2243;48.812;9.232;2023-05-10T05:08:41;1.20;;;1.10;;
4460;SDS011;2243;48.812;9.232;2023-05-10T05:11:12;1.30;;;1.20;;
4460;SDS011;2243;48.812;9.232;2023-05-10T05:13:43;1.00;;;1.00;;
4460;SDS011;2243;48.812;9.232;2023-05-10T05:16:14;1.20;;;1.20;;
4460;SDS011;2243;48.812;9.232;2023-05-10T05:18:45;2.77;;;1.23;;
4460;SDS011;2243;48.812;9.232;2023-05-10T05:21:17;0.90;;;0.90;;
4460;SDS011;2243;48.812;9.232;2023-05-10T05:23:49;2.30;;;1.23;;
4460;SDS011;2243;48.812;9.232;2023-05-10T05:26:20;1.17;;;1.13;;
4460;SDS011;2243;48.812;9.232;2023-05-10T05:28:51;1.00;;;1.00;;
4460;SDS011;2243;48.812;9.232;2023-05-10T05:31:24;4.00;;;1.30;;
4460;SDS011;2243;48.812;9.232;2023-05-10T05:33:56;1.10;;;1.10;;
4460;SDS011;2243;48.812;9.232;2023-05-10T05:36:27;1.63;;;1.23;;
4460;SDS011;2243;48.812;9.232;2023-05-10T05:38:57;1.23;;;1.23;;
4460;SDS011;2243;48.812;9.232;2023-05-10T05:41:28;5.87;;;1.70;;
4460;SDS011;2243;48.812;9.232;2023-05-10T05:43:59;1.40;;;1.30;;
4460;SDS011;2243;48.812;9.232;2023-05-10T05:46:30;1.17;;;1.17;;
4460;SDS011;2243;48.812;9.232;2023-05-10T05:49:01;8.50;;;1.80;;
4460;SDS011;2243;48.812;9.232;2023-05-10T05:51:32;1.50;;;1.40;;
4460;SDS011;2243;48.812;9.232;2023-05-10T05:54:04;5.70;;;1.60;;
4460;SDS011;2243;48.812;9.232;2023-05-10T05:56:36;3.27;;;1.10;;
4460;SDS011;2243;48.812;9.232;2023-05-10T05:59:08;1.10;;;1.10;;
4460;SDS011;2243;48.812;9.232;2023-05-10T06:01:39;2.30;;;1.30;;
4460;SDS011;2243;48.812;9.232;2023-05-10T06:04:10;1.00;;;0.90;;
4460;SDS011;2243;48.812;9.232;2023-05-10T06:06:41;3.30;;;1.43;;
4460;SDS011;2243;48.812;9.232;2023-05-10T06:09:12;1.30;;;1.20;;
4460;SDS011;2243;48.812;9.232;2023-05-10T06:11:43;1.10;;;1.00;;
4460;SDS011;2243;48.812;9.232;2023-05-10T06:14:14;7.13;;;1.30;;
4460;SDS011;2243;48.812;9.232;2023-05-10T06:16:45;1.17;;;1.07;;
4460;SDS011;2243;48.812;9.232;2023-05-10T06:19:16;1.00;;;1.00;;
4460;SDS011;2243;48.812;9.232;2023-05-10T06:21:47;1.10;;;1.10;;
4460;SDS011;2243;48.812;9.232;2023-05-10T06:24:19;2.30;;;1.60;;
4460;SDS011;2243;48.812;9.232;2023-05-10T06:26:51;1.10;;;1.10;;
4460;SDS011;2243;48.812;9.232;2023-05-10T06:29:22;2.10;;;1.30;;
4460;SDS011;2243;48.812;9.232;2023-05-10T06:31:53;1.30;;;1.30;;
4460;SDS011;2243;48.812;9.232;2023-05-10T06:34:24;1.60;;;1.50;;
4460;SDS011;2243;48.812;9.232;2023-05-10T06:36:55;1.73;;;1.30;;
4460;SDS011;2243;48.812;9.232;2023-05-10T06:39:26;2.50;;;1.50;;
4460;SDS011;2243;48.812;9.232;2023-05-10T06:41:59;1.60;;;1.50;;
4460;SDS011;2243;48.812;9.232;2023-05-10T06:44:31;2.43;;;1.40;;
4460;SDS011;2243;48.812;9.232;2023-05-10T06:47:02;1.37;;;1.27;;
4460;SDS011;2243;48.812;9.232;2023-05-10T06:49:33;1.23;;;1.20;;
4460;SDS011;2243;48.812;9.232;2023-05-10T06:52:04;1.53;;;1.43;;
4460;SDS011;2243;48.812;9.232;2023-05-10T06:54:35;7.03;;;1.50;;
4460;SDS011;2243;48.812;9.232;2023-05-10T06:57:06;1.37;;;1.33;;
4460;SDS011;2243;48.812;9.232;2023-05-10T06:59:48;2.30;;;1.10;;
4460;SDS011;2243;48.812;9.232;2023-05-10T07:02:19;2.30;;;1.50;;
4460;SDS011;2243;48.812;9.232;2023-05-10T07:04:50;2.20;;;0.97;;
4460;SDS011;2243;48.812;9.232;2023-05-10T07:07:22;1.47;;;1.47;;
4460;SDS011;2243;48.812;9.232;2023-05-10T07:09:53;2.17;;;1.43;;
4460;SDS011;2243;48.812;9.232;2023-05-10T07:12:24;1.27;;;1.17;;
4460;SDS011;2243;48.812;9.232;2023-05-10T07:14:55;2.00;;;1.43;;
4460;SDS011;2243;48.812;9.232;2023-05-10T07:17:26;1.47;;;1.47;;
4460;SDS011;2243;48.812;9.232;2023-05-10T07:19:57;1.47;;;1.37;;
4460;SDS011;2243;48.812;9.232;2023-05-10T07:22:28;1.53;;;1.07;;
4460;SDS011;2243;48.812;9.232;2023-05-10T07:25:00;0.70;;;0.70;;
4460;SDS011;2243;48.812;9.232;2023-05-10T07:27:31;1.20;;;1.10;;
4460;SDS011;2243;48.812;9.232;2023-05-10T07:30:02;1.13;;;1.13;;
4460;SDS011;2243;48.812;9.232;2023-05-10T07:32:34;1.60;;;1.50;;
4460;SDS011;2243;48.812;9.232;2023-05-10T07:35:05;2.00;;;1.07;;
4460;SDS011;2243;48.812;9.232;2023-05-10T07:37:37;1.33;;;1.23;;
4460;SDS011;2243;48.812;9.232;2023-05-10T07:40:08;1.20;;;1.10;;
4460;SDS011;2243;48.812;9.232;2023-05-10T07:42:39;1.53;;;1.40;;
4460;SDS011;2243;48.812;9.232;2023-05-10T07:45:10;1.40;;;1.40;;
4460;SDS011;2243;48.812;9.232;2023-05-10T07:47:41;1.40;;;1.30;;
4460;SDS011;2243;48.812;9.232;2023-05-10T07:50:12;1.73;;;1.33;;
4460;SDS011;2243;48.812;9.232;2023-05-10T07:52:43;1.03;;;1.03;;
4460;SDS011;2243;48.812;9.232;2023-05-10T07:55:14;1.67;;;1.57;;
4460;SDS011;2243;48.812;9.232;2023-05-10T07:57:46;1.30;;;1.30;;
4460;SDS011;2243;48.812;9.232;2023-05-10T08:00:17;1.23;;;1.13;;
4460;SDS011;2243;48.812;9.232;2023-05-10T08:02:50;3.03;;;1.20;;
4460;SDS011;2243;48.812;9.232;2023-05-10T08:05:21;1.20;;;1.10;;
4460;SDS011;2243;48.812;9.232;2023-05-10T08:07:52;1.17;;;1.07;;
4460;SDS011;2243;48.812;9.232;2023-05-10T08:10:24;1.30;;;1.07;;
4460;SDS011;2243;48.812;9.232;2023-05-10T08:12:55;3.00;;;0.90;;
4460;SDS011;2243;48.812;9.232;2023-05-10T08:15:26;2.40;;;1.13;;
4460;SDS011;2243;48.812;9.232;2023-05-10T08:17:57;1.27;;;1.27;;
4460;SDS011;2243;48.812;9.232;2023-05-10T08:20:27;1.03;;;1.03;;
4460;SDS011;2243;48.812;9.232;2023-05-10T08:22:59;1.00;;;1.00;;
4460;SDS011;2243;48.812;9.232;2023-05-10T08:25:29;1.00;;;1.00;;
4460;SDS011;2243;48.812;9.232;2023-05-10T08:28:01;1.43;;;1.10;;
4460;SDS011;2243;48.812;9.232;2023-05-10T08:30:32;1.10;;;1.10;;
4460;SDS011;2243;48.812;9.232;2023-05-10T08:33:03;5.70;;;1.07;;
4460;SDS011;2243;48.812;9.232;2023-05-10T08:35:34;1.17;;;1.17;;
4460;SDS011;2243;48.812;9.232;2023-05-10T08:38:05;1.83;;;0.90;;
4460;SDS011;2243;48.812;9.232;2023-05-10T08:40:37;8.70;;;0.90;;
4460;SDS011;2243;48.812;9.232;2023-05-10T08:43:09;1.10;;;0.90;;
4460;SDS011;2243;48.812;9.232;2023-05-10T08:45:42;0.80;;;0.80;;
4460;SDS011;2243;48.812;9.232;2023-05-10T08:48:17;0.60;;;0.60;;
4460;SDS011;2243;48.812;9.232;2023-05-10T08:50:48;0.73;;;0.73;;
4460;SDS011;2243;48.812;9.232;2023-05-10T08:53:24;0.80;;;0.80;;
4460;SDS011;2243;48.812;9.232;2023-05-10T08:55:57;0.80;;;0.80;;
4460;SDS011;2243;48.812;9.232;2023-05-10T08:58:28;0.80;;;0.80;;
4460;SDS011;2243;48.812;9.232;2023-05-10T09:00:59;0.70;;;0.70;;
4460;SDS011;2243;48.812;9.232;2023-05-10T09:03:31;0.77;;;0.77;;
4460;SDS011;2243;48.812;9.232;2023-05-10T09:06:02;0.77;;;0.77;;
4460;SDS011;2243;48.812;9.232;2023-05-10T09:08:33;0.80;;;0.80;;
4460;SDS011;2243;48.812;9.232;2023-05-10T09:11:06;1.87;;;1.03;;
4460;SDS011;2243;48.812;9.232;2023-05-10T09:13:39;1.10;;;0.67;;
4460;SDS011;2243;48.812;9.232;2023-05-10T09:16:10;0.90;;;0.90;;
4460;SDS011;2243;48.812;9.232;2023-05-10T09:18:51;1.57;;;0.80;;
4460;SDS011;2243;48.812;9.232;2023-05-10T09:21:22;0.90;;;0.90;;
4460;SDS011;2243;48.812;9.232;2023-05-10T09:23:53;0.80;;;0.80;;
4460;SDS011;2243;48.812;9.232;2023-05-10T09:26:24;0.60;;;0.60;;
4460;SDS011;2243;48.812;9.232;2023-05-10T09:28:57;0.70;;;0.70;;
4460;SDS011;2243;48.812;9.232;2023-05-10T09:31:49;0.70;;;0.70;;
4460;SDS011;2243;48.812;9.232;2023-05-10T09:34:28;0.80;;;0.80;;
4460;SDS011;2243;48.812;9.232;2023-05-10T09:37:01;1.90;;;0.80;;
4460;SDS011;2243;48.812;9.232;2023-05-10T09:39:35;1.37;;;0.80;;
4460;SDS011;2243;48.812;9.232;2023-05-10T09:42:09;0.77;;;0.77;;
4460;SDS011;2243;48.812;9.232;2023-05-10T09:44:40;1.63;;;0.70;;
4460;SDS011;2243;48.812;9.232;2023-05-10T09:47:16;0.70;;;0.70;;
4460;SDS011;2243;48.812;9.232;2023-05-10T09:49:49;0.87;;;0.87;;
4460;SDS011;2243;48.812;9.232;2023-05-10T09:52:23;2.23;;;0.80;;
4460;SDS011;2243;48.812;9.232;2023-05-10T09:54:54;0.60;;;0.60;;
4460;SDS011;2243;48.812;9.232;2023-05-10T09:57:25;0.80;;;0.80;;
4460;SDS011;2243;48.812;9.232;2023-05-10T09:59:56;3.23;;;0.80;;
4460;SDS011;2243;48.812;9.232;2023-05-10T10:02:30;1.00;;;1.00;;
4460;SDS011;2243;48.812;9.232;2023-05-10T10:05:02;0.90;;;0.67;;
4460;SDS011;2243;48.812;9.232;2023-05-10T10:07:34;1.20;;;0.90;;
4460;SDS011;2243;48.812;9.232;2023-05-10T10:10:06;1.20;;;1.10;;
4460;SDS011;2243;48.812;9.232;2023-05-10T10:12:41;0.80;;;0.80;;
4460;SDS011;2243;48.812;9.232;2023-05-10T10:15:12;1.03;;;0.93;;
4460;SDS011;2243;48.812;9.232;2023-05-10T10:17:46;1.10;;;0.90;;
4460;SDS011;2243;48.812;9.232;2023-05-10T10:20:19;1.57;;;1.10;;
4460;SDS011;2243;48.812;9.232;2023-05-10T10:22:52;1.43;;;0.73;;
4460;SDS011;2243;48.812;9.232;2023-05-10T10:25:23;0.70;;;0.70;;
4460;SDS011;2243;48.812;9.232;2023-05-10T10:28:01;0.80;;;0.80;;
4460;SDS011;2243;48.812;9.232;2023-05-10T10:31:36;0.90;;;0.90;;
4460;SDS011;2243;48.812;9.232;2023-05-10T10:34:39;0.93;;;0.93;;
4460;SDS011;2243;48.812;9.232;2023-05-10T10:37:11;1.37;;;1.13;;
4460;SDS011;2243;48.812;9.232;2023-05-10T10:39:42;1.83;;;0.90;;
4460;SDS011;2243;48.812;9.232;2023-05-10T10:42:12;1.77;;;0.80;;
4460;SDS011;2243;48.812;9.232;2023-05-10T10:44:43;1.53;;;1.00;;
4460;SDS011;2243;48.812;9.232;2023-05-10T10:50:02;0.90;;;0.90;;
4460;SDS011;2243;48.812;9.232;2023-05-10T10:52:36;2.00;;;0.93;;
4460;SDS011;2243;48.812;9.232;2023-05-10T10:55:09;2.93;;;0.80;;
4460;SDS011;2243;48.812;9.232;2023-05-10T10:57:49;1.00;;;1.00;;
4460;SDS011;2243;48.812;9.232;2023-05-10T11:00:28;0.80;;;0.80;;
4460;SDS011;2243;48.812;9.232;2023-05-10T11:03:09;0.60;;;0.60;;
4460;SDS011;2243;48.812;9.232;2023-05-10T11:05:45;0.80;;;0.80;;
4460;SDS011;2243;48.812;9.232;2023-05-10T11:08:31;0.80;;;0.80;;
4460;SDS011;2243;48.812;9.232;2023-05-10T11:11:13;0.93;;;0.80;;
4460;SDS011;2243;48.812;9.232;2023-05-10T11:13:45;0.80;;;0.80;;
4460;SDS011;2243;48.812;9.232;2023-05-10T11:16:21;0.77;;;0.50;;
4460;SDS011;2243;48.812;9.232;2023-05-10T11:19:04;10.53;;;0.97;;
4460;SDS011;2243;48.812;9.232;2023-05-10T11:21:45;1.43;;;0.80;;
4460;SDS011;2243;48.812;9.232;2023-05-10T11:24:22;0.60;;;0.60;;
4460;SDS011;2243;48.812;9.232;2023-05-10T11:26:57;0.70;;;0.60;;
4460;SDS011;2243;48.812;9.232;2023-05-10T11:29:28;0.60;;;0.60;;
4460;SDS011;2243;48.812;9.232;2023-05-10T11:31:59;1.00;;;0.90;;
4460;SDS011;2243;48.812;9.232;2023-05-10T11:34:31;0.73;;;0.73;;
4460;SDS011;2243;48.812;9.232;2023-05-10T11:37:05;2.50;;;0.97;;
4460;SDS011;2243;48.812;9.232;2023-05-10T11:39:36;0.80;;;0.80;;
4460;SDS011;2243;48.812;9.232;2023-05-10T11:42:07;0.83;;;0.83;;
4460;SDS011;2243;48.812;9.232;2023-05-10T11:44:39;0.90;;;0.80;;
4460;SDS011;2243;48.812;9.232;2023-05-10T11:47:11;1.00;;;0.90;;
4460;SDS011;2243;48.812;9.232;2023-05-10T11:49:46;2.43;;;0.80;;
4460;SDS011;2243;48.812;9.232;2023-05-10T11:52:18;0.80;;;0.80;;
4460;SDS011;2243;48.812;9.232;2023-05-10T11:54:53;0.70;;;0.70;;
4460;SDS011;2243;48.812;9.232;2023-05-10T11:57:26;2.30;;;1.13;;
4460;SDS011;2243;48.812;9.232;2023-05-10T11:59:58;1.13;;;0.90;;
4460;SDS011;2243;48.812;9.232;2023-05-10T12:02:29;1.07;;;1.07;;
4460;SDS011;2243;48.812;9.232;2023-05-10T12:05:01;0.83;;;0.83;;
4460;SDS011;2243;48.812;9.232;2023-05-10T12:07:35;1.10;;;1.00;;
4460;SDS011;2243;48.812;9.232;2023-05-10T12:10:06;1.00;;;1.00;;
4460;SDS011;2243;48.812;9.232;2023-05-10T12:12:39;1.57;;;1.10;;
4460;SDS011;2243;48.812;9.232;2023-05-10T12:15:18;0.93;;;0.93;;
4460;SDS011;2243;48.812;9.232;2023-05-10T12:17:54;4.03;;;1.10;;
4460;SDS011;2243;48.812;9.232;2023-05-10T12:20:27;1.23;;;1.13;;
4460;SDS011;2243;48.812;9.232;2023-05-10T12:22:58;1.00;;;1.00;;
4460;SDS011;2243;48.812;9.232;2023-05-10T12:25:33;1.00;;;1.00;;
4460;SDS011;2243;48.812;9.232;2023-05-10T12:28:06;1.27;;;1.20;;
4460;SDS011;2243;48.812;9.232;2023-05-10T12:30:39;0.90;;;0.90;;
4460;SDS011;2243;48.812;9.232;2023-05-10T12:33:11;1.40;;;1.30;;
4460;SDS011;2243;48.812;9.232;2023-05-10T12:35:49;1.20;;;1.20;;
4460;SDS011;2243;48.812;9.232;2023-05-10T12:38:32;0.93;;;0.93;;
4460;SDS011;2243;48.812;9.232;2023-05-10T12:41:12;1.10;;;1.10;;
4460;SDS011;2243;48.812;9.232;2023-05-10T12:43:47;1.03;;;1.03;;
4460;SDS011;2243;48.812;9.232;2023-05-10T12:46:18;1.20;;;1.10;;
4460;SDS011;2243;48.812;9.232;2023-05-10T12:48:49;4.43;;;1.27;;
4460;SDS011;2243;48.812;9.232;2023-05-10T12:51:37;1.07;;;0.97;;
4460;SDS011;2243;48.812;9.232;2023-05-10T12:54:08;2.83;;;1.13;;
4460;SDS011;2243;48.812;9.232;2023-05-10T12:56:39;2.50;;;0.90;;
4460;SDS011;2243;48.812;9.232;2023-05-10T12:59:12;1.47;;;1.10;;
4460;SDS011;2243;48.812;9.232;2023-05-10T13:01:43;3.23;;;1.10;;
4460;SDS011;2243;48.812;9.232;2023-05-10T13:04:14;2.20;;;0.93;;
4460;SDS011;2243;48.812;9.232;2023-05-10T13:06:45;1.43;;;1.33;;
4460;SDS011;2243;48.812;9.232;2023-05-10T13:09:16;1.23;;;1.13;;
4460;SDS011;2243;48.812;9.232;2023-05-10T13:11:47;3.60;;;1.10;;
4460;SDS011;2243;48.812;9.232;2023-05-10T13:14:19;1.30;;;1.20;;
4460;SDS011;2243;48.812;9.232;2023-05-10T13:16:53;1.20;;;1.10;;
4460;SDS011;2243;48.812;9.232;2023-05-10T13:19:24;1.37;;;1.10;;
4460;SDS011;2243;48.812;9.232;2023-05-10T13:21:56;1.53;;;0.93;;
4460;SDS011;2243;48.812;9.232;2023-05-10T13:24:27;1.43;;;0.90;;
4460;SDS011;2243;48.812;9.232;2023-05-10T13:26:58;2.17;;;1.10;;
4460;SDS011;2243;48.812;9.232;2023-05-10T13:29:29;1.43;;;0.90;;
4460;SDS011;2243;48.812;9.232;2023-05-10T13:32:00;1.17;;;1.17;;
4460;SDS011;2243;48.812;9.232;2023-05-10T13:34:31;3.47;;;1.33;;
4460;SDS011;2243;48.812;9.232;2023-05-10T13:37:02;1.53;;;1.20;;
4460;SDS011;2243;48.812;9.232;2023-05-10T13:39:33;1.23;;;1.10;;
4460;SDS011;2243;48.812;9.232;2023-05-10T13:42:04;3.33;;;1.47;;
4460;SDS011;2243;48.812;9.232;2023-05-10T13:44:35;0.90;;;0.90;;
4460;SDS011;2243;48.812;9.232;2023-05-10T13:47:06;1.37;;;1.30;;
4460;SDS011;2243;48.812;9.232;2023-05-10T13:49:37;4.83;;;1.40;;
4460;SDS011;2243;48.812;9.232;2023-05-10T13:52:08;0.90;;;0.90;;
4460;SDS011;2243;48.812;9.232;2023-05-10T13:54:40;0.87;;;0.87;;
4460;SDS011;2243;48.812;9.232;2023-05-10T13:57:11;4.10;;;1.33;;
4460;SDS011;2243;48.812;9.232;2023-05-10T13:59:44;1.83;;;1.33;;
4460;SDS011;2243;48.812;9.232;2023-05-10T14:02:14;1.20;;;1.20;;
4460;SDS011;2243;48.812;9.232;2023-05-10T14:04:46;0.90;;;0.90;;
4460;SDS011;2243;48.812;9.232;2023-05-10T14:07:17;2.43;;;1.30;;
4460;SDS011;2243;48.812;9.232;2023-05-10T14:09:48;1.20;;;1.20;;
4460;SDS011;2243;48.812;9.232;2023-05-10T14:12:19;1.70;;;1.60;;
4460;SDS011;2243;48.812;9.232;2023-05-10T14:14:49;2.63;;;1.43;;
4460;SDS011;2243;48.812;9.232;2023-05-10T14:17:20;1.93;;;1.00;;
4460;SDS011;2243;48.812;9.232;2023-05-10T14:19:52;1.43;;;1.00;;
4460;SDS011;2243;48.812;9.232;2023-05-10T14:22:23;0.93;;;0.93;;
4460;SDS011;2243;48.812;9.232;2023-05-10T14:24:54;0.70;;;0.70;;
4460;SDS011;2243;48.812;9.232;2023-05-10T14:27:25;0.97;;;0.97;;
4460;SDS011;2243;48.812;9.232;2023-05-10T14:29:56;1.63;;;1.10;;
4460;SDS011;2243;48.812;9.232;2023-05-10T14:32:28;2.50;;;0.90;;
4460;SDS011;2243;48.812;9.232;2023-05-10T14:34:59;1.67;;;1.10;;
4460;SDS011;2243;48.812;9.232;2023-05-10T14:37:30;1.00;;;0.80;;
4460;SDS011;2243;48.812;9.232;2023-05-10T14:40:01;3.93;;;1.10;;
4460;SDS011;2243;48.812;9.232;2023-05-10T14:42:32;0.97;;;0.97;;
4460;SDS011;2243;48.812;9.232;2023-05-10T14:45:03;1.70;;;0.87;;
4460;SDS011;2243;48.812;9.232;2023-05-10T14:47:35;2.33;;;1.00;;
4460;SDS011;2243;48.812;9.232;2023-05-10T14:50:06;1.47;;;1.00;;
4460;SDS011;2243;48.812;9.232;2023-05-10T14:52:38;0.93;;;0.90;;
4460;SDS011;2243;48.812;9.232;2023-05-10T14:55:09;1.60;;;1.50;;
4460;SDS011;2243;48.812;9.232;2023-05-10T14:57:40;1.70;;;1.20;;
4460;SDS011;2243;48.812;9.232;2023-05-10T15:00:11;1.63;;;1.43;;
4460;SDS011;2243;48.812;9.232;2023-05-10T15:02:46;2.97;;;1.00;;
4460;SDS011;2243;48.812;9.232;2023-05-10T15:05:18;0.80;;;0.80;;
4460;SDS011;2243;48.812;9.232;2023-05-10T15:07:50;1.00;;;0.90;;
4460;SDS011;2243;48.812;9.232;2023-05-10T15:10:21;2.20;;;0.80;;
4460;SDS011;2243;48.812;9.232;2023-05-10T15:12:52;3.90;;;1.20;;
4460;SDS011;2243;48.812;9.232;2023-05-10T15:15:23;1.17;;;0.97;;
4460;SDS011;2243;48.812;9.232;2023-05-10T15:17:54;2.47;;;1.00;;
4460;SDS011;2243;48.812;9.232;2023-05-10T15:20:25;1.10;;;1.00;;
4460;SDS011;2243;48.812;9.232;2023-05-10T15:22:56;1.07;;;1.07;;
4460;SDS011;2243;48.812;9.232;2023-05-10T15:25:27;2.30;;;0.97;;
4460;SDS011;2243;48.812;9.232;2023-05-10T15:27:59;0.90;;;0.90;;
4460;SDS011;2243;48.812;9.232;2023-05-10T15:30:30;1.33;;;1.17;;
4460;SDS011;2243;48.812;9.232;2023-05-10T15:33:01;1.23;;;1.13;;
4460;SDS011;2243;48.812;9.232;2023-05-10T15:35:32;1.20;;;1.07;;
4460;SDS011;2243;48.812;9.232;2023-05-10T15:38:05;1.47;;;0.97;;
4460;SDS011;2243;48.812;9.232;2023-05-10T15:40:37;1.87;;;1.07;;
4460;SDS011;2243;48.812;9.232;2023-05-10T15:43:08;4.30;;;1.00;;
4460;SDS011;2243;48.812;9.232;2023-05-10T15:45:39;2.87;;;1.20;;
4460;SDS011;2243;48.812;9.232;2023-05-10T15:48:10;1.00;;;0.80;;
4460;SDS011;2243;48.812;9.232;2023-05-10T15:50:41;1.43;;;1.10;;
4460;SDS011;2243;48.812;9.232;2023-05-10T15:53:12;1.47;;;1.00;;
4460;SDS011;2243;48.812;9.232;2023-05-10T15:55:43;2.30;;;0.90;;
4460;SDS011;2243;48.812;9.232;2023-05-10T15:58:14;1.10;;;1.10;;
4460;SDS011;2243;48.812;9.232;2023-05-10T16:00:46;4.20;;;1.07;;
4460;SDS011;2243;48.812;9.232;2023-05-10T16:03:17;1.57;;;1.00;;
4460;SDS011;2243;48.812;9.232;2023-05-10T16:05:48;1.20;;;1.10;;
4460;SDS011;2243;48.812;9.232;2023-05-10T16:08:19;1.47;;;0.80;;
4460;SDS011;2243;48.812;9.232;2023-05-10T16:10:50;2.33;;;1.20;;
4460;SDS011;2243;48.812;9.232;2023-05-10T16:13:21;2.87;;;0.97;;